createdAt,value
2019-01-31T00:00:25.608Z,0.66
2019-01-31T00:02:54.377Z,0.66
2019-01-31T00:05:46.068Z,0.66
2019-01-31T00:08:06.377Z,0.67
2019-01-31T00:10:46.208Z,0.69
2019-01-31T00:13:13.609Z,0.69
2019-01-31T00:15:27.568Z,0.70
2019-01-31T00:17:47.048Z,0.70
2019-01-31T00:20:17.868Z,0.71
2019-01-31T00:22:44.992Z,0.70
2019-01-31T00:25:19.889Z,0.71
2019-01-31T00:27:45.567Z,0.73
2019-01-31T00:30:02.110Z,0.75
2019-01-31T00:32:19.628Z,0.76
2019-01-31T00:34:47.700Z,0.77
2019-01-31T00:37:10.588Z,0.78
2019-01-31T00:39:26.908Z,0.77
2019-01-31T00:41:53.148Z,0.74
2019-01-31T00:44:15.648Z,0.75
2019-01-31T00:46:54.377Z,0.76
2019-01-31T00:49:20.169Z,0.78
2019-01-31T00:51:38.127Z,0.78
2019-01-31T00:53:55.170Z,0.78
2019-01-31T00:56:25.807Z,0.76
2019-01-31T00:58:48.868Z,0.75
2019-01-31T01:01:05.808Z,0.76
2019-01-31T01:03:31.927Z,0.76
2019-01-31T01:05:52.828Z,0.76
2019-01-31T01:08:18.708Z,0.79
2019-01-31T01:10:56.507Z,0.81
2019-01-31T01:13:19.549Z,0.80
2019-01-31T01:15:49.809Z,0.83
2019-01-31T01:18:22.048Z,0.82
2019-01-31T01:21:24.768Z,0.83
2019-01-31T01:23:41.128Z,0.84
2019-01-31T01:26:07.328Z,0.83
2019-01-31T01:28:40.088Z,0.83
2019-01-31T01:30:59.728Z,0.84
2019-01-31T01:33:26.048Z,0.85
2019-01-31T01:35:45.747Z,0.86
2019-01-31T01:38:20.488Z,0.89
2019-01-31T01:40:46.348Z,0.87
2019-01-31T01:43:27.550Z,0.86
2019-01-31T01:45:57.068Z,0.89
2019-01-31T01:48:07.868Z,0.87
2019-01-31T01:50:33.849Z,0.88
2019-01-31T01:53:09.211Z,0.89
2019-01-31T01:55:34.808Z,0.90
2019-01-31T01:58:11.531Z,0.90
2019-01-31T02:00:24.928Z,0.90
2019-01-31T02:03:13.768Z,0.92
2019-01-31T02:06:00.928Z,0.91
2019-01-31T02:08:20.867Z,0.91
2019-01-31T02:10:50.070Z,0.89
2019-01-31T02:13:45.308Z,0.89
2019-01-31T02:16:22.990Z,0.89
2019-01-31T02:18:39.871Z,0.88
2019-01-31T02:21:20.689Z,0.89
2019-01-31T02:23:47.248Z,0.89
2019-01-31T02:26:10.748Z,0.87
2019-01-31T02:28:52.109Z,0.89
2019-01-31T02:31:28.447Z,0.91
2019-01-31T02:33:51.169Z,0.87
2019-01-31T02:36:36.649Z,0.89
2019-01-31T02:39:11.575Z,0.90
2019-01-31T02:41:34.227Z,0.86
2019-01-31T02:44:03.229Z,0.87
2019-01-31T02:46:44.469Z,0.87
2019-01-31T02:48:58.589Z,0.90
2019-01-31T02:51:12.588Z,0.87
2019-01-31T02:53:44.728Z,0.88
2019-01-31T02:56:27.529Z,0.87
2019-01-31T02:58:59.109Z,0.89
2019-01-31T03:01:27.207Z,0.87
2019-01-31T03:04:05.789Z,0.87
2019-01-31T03:06:48.396Z,0.89
2019-01-31T03:09:21.789Z,0.90
2019-01-31T03:11:39.248Z,0.90
2019-01-31T03:14:09.489Z,0.87
2019-01-31T03:16:27.608Z,0.90
2019-01-31T03:19:02.948Z,0.89
2019-01-31T03:21:58.229Z,0.92
2019-01-31T03:24:29.767Z,0.93
2019-01-31T03:26:55.710Z,0.95
2019-01-31T03:29:46.889Z,0.96
2019-01-31T03:32:04.143Z,0.96
2019-01-31T03:34:17.748Z,0.94
2019-01-31T03:36:57.648Z,0.96
2019-01-31T03:39:26.608Z,0.96
2019-01-31T03:41:55.728Z,0.96
2019-01-31T03:44:34.236Z,0.96
2019-01-31T03:47:16.585Z,0.97
2019-01-31T03:49:42.206Z,0.96
2019-01-31T03:52:24.406Z,0.94
2019-01-31T03:55:08.205Z,0.91
2019-01-31T03:57:32.208Z,0.91
2019-01-31T03:59:38.900Z,0.92
2019-01-31T04:02:10.608Z,0.91
2019-01-31T04:04:29.920Z,0.92
2019-01-31T04:06:36.382Z,0.92
2019-01-31T04:08:44.395Z,0.91
2019-01-31T04:10:50.606Z,0.92
2019-01-31T04:12:59.988Z,0.94
2019-01-31T04:15:10.440Z,0.95
2019-01-31T04:17:18.009Z,0.96
2019-01-31T04:19:24.399Z,0.96
2019-01-31T04:21:31.828Z,0.97
2019-01-31T04:23:38.479Z,0.97
2019-01-31T04:25:44.774Z,0.96
2019-01-31T04:27:50.963Z,0.95
2019-01-31T04:29:58.958Z,0.94
2019-01-31T04:32:05.270Z,0.95
2019-01-31T04:34:12.079Z,0.96
2019-01-31T04:36:18.349Z,0.96
2019-01-31T04:38:24.715Z,0.93
2019-01-31T04:40:31.833Z,0.93
2019-01-31T04:42:38.157Z,0.92
2019-01-31T04:44:44.634Z,0.93
2019-01-31T04:46:50.834Z,0.94
2019-01-31T04:48:57.374Z,0.95
2019-01-31T04:51:03.924Z,0.95
2019-01-31T04:53:11.725Z,0.97
2019-01-31T04:55:18.373Z,0.97
2019-01-31T04:57:24.601Z,0.98
2019-01-31T04:59:34.373Z,0.98
2019-01-31T05:01:40.700Z,0.99
2019-01-31T05:03:47.220Z,0.97
2019-01-31T05:05:53.780Z,0.99
2019-01-31T05:07:59.942Z,0.99
2019-01-31T05:10:10.663Z,1.01
2019-01-31T05:12:17.977Z,1.01
2019-01-31T05:14:24.325Z,0.99
2019-01-31T05:16:30.610Z,1.01
2019-01-31T05:18:38.511Z,1.02
2019-01-31T05:20:45.989Z,1.03
2019-01-31T05:22:52.378Z,1.01
2019-01-31T05:24:58.718Z,1.01
2019-01-31T05:27:04.959Z,1.00
2019-01-31T05:29:11.810Z,0.99
2019-01-31T05:31:19.449Z,0.99
2019-01-31T05:33:25.908Z,0.99
2019-01-31T05:35:32.268Z,1.02
2019-01-31T05:37:38.738Z,1.02
2019-01-31T05:39:44.828Z,1.02
2019-01-31T05:41:51.141Z,1.04
2019-01-31T05:43:57.419Z,1.03
2019-01-31T05:46:03.988Z,1.02
2019-01-31T05:48:10.247Z,1.03
2019-01-31T05:50:18.196Z,1.05
2019-01-31T05:52:24.645Z,1.06
2019-01-31T05:54:30.917Z,1.06
2019-01-31T05:56:37.846Z,1.03
2019-01-31T05:58:44.511Z,0.97
2019-01-31T06:00:52.201Z,0.99
2019-01-31T06:02:58.584Z,0.99
2019-01-31T06:05:06.665Z,0.99
2019-01-31T06:07:14.877Z,1.00
2019-01-31T06:09:21.154Z,1.02
2019-01-31T06:11:27.499Z,1.03
2019-01-31T06:13:33.857Z,1.03
2019-01-31T06:15:41.247Z,1.05
2019-01-31T06:17:51.828Z,1.07
2019-01-31T06:19:58.278Z,1.07
2019-01-31T06:22:04.408Z,1.07
2019-01-31T06:24:10.498Z,1.08
2019-01-31T06:26:16.811Z,1.08
2019-01-31T06:28:24.456Z,1.08
2019-01-31T06:30:31.635Z,1.09
2019-01-31T06:32:38.171Z,1.11
2019-01-31T06:34:44.755Z,1.13
2019-01-31T06:36:50.890Z,1.13
2019-01-31T06:38:56.972Z,1.13
2019-01-31T06:41:03.544Z,1.12
2019-01-31T06:43:12.079Z,1.12
2019-01-31T06:45:21.698Z,1.13
2019-01-31T06:47:30.614Z,1.15
2019-01-31T06:49:36.926Z,1.17
2019-01-31T06:51:44.612Z,1.17
2019-01-31T06:53:52.075Z,1.18
2019-01-31T06:55:58.354Z,1.20
2019-01-31T06:58:04.884Z,1.19
2019-01-31T07:00:19.250Z,1.20
2019-01-31T07:02:27.257Z,1.22
2019-01-31T07:04:33.596Z,1.19
2019-01-31T07:06:40.396Z,1.18
2019-01-31T07:08:46.745Z,1.20
2019-01-31T07:10:53.033Z,1.24
2019-01-31T07:12:59.257Z,1.27
2019-01-31T07:15:07.658Z,1.43
2019-01-31T07:17:14.077Z,1.55
2019-01-31T07:19:20.323Z,1.71
2019-01-31T07:21:26.574Z,1.72
2019-01-31T07:23:33.012Z,1.71
2019-01-31T07:25:39.372Z,1.84
2019-01-31T07:27:56.920Z,1.86
2019-01-31T07:30:03.572Z,1.88
2019-01-31T07:32:10.132Z,1.79
2019-01-31T07:34:16.309Z,1.69
2019-01-31T07:36:22.872Z,1.58
2019-01-31T07:38:29.108Z,1.51
2019-01-31T07:40:35.782Z,1.47
2019-01-31T07:42:43.552Z,1.40
2019-01-31T07:44:49.629Z,1.41
2019-01-31T07:46:56.612Z,1.35
2019-01-31T07:49:04.542Z,1.35
2019-01-31T07:51:10.581Z,1.36
2019-01-31T07:53:16.629Z,1.34
2019-01-31T07:55:22.772Z,1.36
2019-01-31T07:57:28.939Z,1.35
2019-01-31T07:59:39.618Z,1.34
2019-01-31T08:01:46.032Z,1.36
2019-01-31T08:04:02.227Z,1.37
2019-01-31T08:06:00.224Z,1.34
2019-01-31T08:08:06.476Z,1.37
2019-01-31T08:10:25.983Z,1.35
2019-01-31T08:12:34.567Z,1.36
2019-01-31T08:14:40.024Z,1.36
2019-01-31T08:16:46.645Z,1.38
2019-01-31T08:18:53.254Z,1.40
2019-01-31T08:20:59.645Z,1.44
2019-01-31T08:23:05.983Z,1.46
2019-01-31T08:25:26.498Z,1.40
2019-01-31T08:27:32.642Z,1.40
2019-01-31T08:29:40.579Z,1.39
2019-01-31T08:31:49.990Z,1.41
2019-01-31T08:33:58.890Z,1.42
2019-01-31T08:36:05.159Z,1.42
2019-01-31T08:38:11.814Z,1.40
2019-01-31T08:40:18.385Z,1.42
2019-01-31T08:42:26.092Z,1.39
2019-01-31T08:44:34.052Z,1.43
2019-01-31T08:46:40.511Z,1.45
2019-01-31T08:48:47.007Z,1.47
2019-01-31T08:50:53.901Z,1.48
2019-01-31T08:53:04.233Z,1.48
2019-01-31T08:55:10.384Z,1.47
2019-01-31T08:57:17.356Z,1.49
2019-01-31T08:59:23.621Z,1.50
2019-01-31T09:01:33.056Z,1.47
2019-01-31T09:03:39.214Z,1.49
2019-01-31T09:05:48.002Z,1.51
2019-01-31T09:07:54.137Z,1.55
2019-01-31T09:10:00.455Z,1.58
2019-01-31T09:12:15.022Z,1.58
2019-01-31T09:14:15.715Z,1.58
2019-01-31T09:16:22.199Z,1.61
2019-01-31T09:18:30.081Z,1.65
2019-01-31T09:20:58.262Z,1.69
2019-01-31T09:23:27.166Z,1.69
2019-01-31T09:26:09.371Z,1.70
2019-01-31T09:28:45.733Z,1.74
2019-01-31T09:31:17.600Z,1.75
2019-01-31T09:33:48.019Z,1.79
2019-01-31T09:36:10.879Z,1.93
2019-01-31T09:38:57.697Z,2.12
2019-01-31T09:41:22.063Z,2.41
2019-01-31T09:43:39.758Z,2.81
2019-01-31T09:46:05.262Z,2.96
2019-01-31T09:48:20.273Z,3.01
2019-01-31T09:50:59.612Z,3.05
2019-01-31T09:53:25.410Z,2.95
2019-01-31T09:56:14.091Z,2.92
2019-01-31T09:58:35.223Z,2.94
2019-01-31T10:01:03.454Z,2.87
2019-01-31T10:03:34.702Z,2.85
2019-01-31T10:06:08.201Z,2.70
2019-01-31T10:08:30.449Z,2.52
2019-01-31T10:11:01.623Z,2.44
2019-01-31T10:13:27.494Z,2.50
2019-01-31T10:15:41.236Z,2.46
2019-01-31T10:17:58.296Z,2.42
2019-01-31T10:20:36.276Z,2.41
2019-01-31T10:22:52.956Z,2.44
2019-01-31T10:25:23.861Z,2.57
2019-01-31T10:27:59.048Z,2.65
2019-01-31T10:30:27.724Z,2.72
2019-01-31T10:32:49.959Z,2.76
2019-01-31T10:35:04.819Z,2.78
2019-01-31T10:37:48.017Z,2.81
2019-01-31T10:40:32.117Z,2.79
2019-01-31T10:42:52.085Z,2.78
2019-01-31T10:45:52.316Z,2.69
2019-01-31T10:48:21.194Z,2.68
2019-01-31T10:50:53.977Z,2.63
2019-01-31T10:53:34.940Z,2.62
2019-01-31T10:56:14.368Z,2.78
2019-01-31T10:58:42.976Z,2.81
2019-01-31T11:01:30.395Z,2.94
2019-01-31T11:03:50.590Z,2.97
2019-01-31T11:06:07.088Z,2.79
2019-01-31T11:08:44.791Z,2.82
2019-01-31T11:10:58.503Z,2.74
2019-01-31T11:13:40.092Z,2.76
2019-01-31T11:16:12.077Z,2.86
2019-01-31T11:18:37.887Z,3.04
2019-01-31T11:21:26.439Z,3.17
2019-01-31T11:23:46.007Z,3.36
2019-01-31T11:26:14.906Z,3.44
2019-01-31T11:28:52.591Z,3.71
2019-01-31T11:31:21.601Z,3.53
2019-01-31T11:33:41.471Z,3.70
2019-01-31T11:36:01.451Z,3.74
2019-01-31T11:38:37.505Z,3.69
2019-01-31T11:41:04.867Z,3.45
2019-01-31T11:43:33.818Z,3.54
2019-01-31T11:45:53.071Z,3.67
2019-01-31T11:48:20.189Z,3.77
2019-01-31T11:51:04.029Z,3.81
2019-01-31T11:53:35.455Z,3.95
2019-01-31T11:55:52.149Z,3.79
2019-01-31T11:58:39.085Z,3.62
2019-01-31T12:00:45.674Z,3.60
2019-01-31T12:02:55.067Z,3.59
2019-01-31T12:05:00.312Z,3.69
2019-01-31T12:07:06.640Z,3.65
2019-01-31T12:09:14.463Z,3.63
2019-01-31T12:11:20.944Z,3.54
2019-01-31T12:13:27.498Z,3.49
2019-01-31T12:15:34.312Z,3.52
2019-01-31T12:17:40.647Z,3.52
2019-01-31T12:19:47.022Z,3.45
2019-01-31T12:21:54.798Z,3.35
2019-01-31T12:24:01.018Z,3.10
2019-01-31T12:26:07.098Z,2.99
2019-01-31T12:28:13.512Z,2.86
2019-01-31T12:30:24.472Z,2.76
2019-01-31T12:32:30.908Z,2.63
2019-01-31T12:34:37.089Z,2.57
2019-01-31T12:39:18.853Z,2.53
2019-01-31T12:42:14.115Z,2.61
2019-01-31T12:44:23.135Z,2.62
2019-01-31T12:46:29.494Z,2.62
2019-01-31T12:48:45.132Z,2.64
2019-01-31T12:50:51.254Z,2.62
2019-01-31T12:52:57.485Z,2.53
2019-01-31T12:55:40.315Z,2.50
2019-01-31T13:00:41.348Z,2.52
2019-01-31T13:03:03.816Z,2.44
2019-01-31T13:05:10.868Z,2.39
2019-01-31T13:07:23.527Z,2.41
2019-01-31T13:09:53.568Z,2.44
2019-01-31T13:11:50.246Z,2.45
2019-01-31T13:13:56.915Z,2.49
2019-01-31T13:16:03.638Z,2.52
2019-01-31T13:18:10.447Z,2.50
2019-01-31T13:20:25.090Z,2.55
2019-01-31T13:22:32.932Z,2.57
2019-01-31T13:25:05.077Z,2.63
2019-01-31T13:27:12.535Z,2.61
2019-01-31T13:29:19.013Z,2.64
2019-01-31T13:31:25.923Z,2.65
2019-01-31T13:33:32.374Z,2.71
2019-01-31T13:35:43.122Z,2.70
2019-01-31T13:37:55.715Z,2.68
2019-01-31T13:40:23.933Z,2.71
2019-01-31T13:42:39.415Z,2.69
2019-01-31T13:45:07.532Z,2.73
2019-01-31T13:47:16.733Z,2.73
2019-01-31T13:49:23.122Z,2.73
2019-01-31T13:51:29.610Z,2.71
2019-01-31T13:53:36.119Z,2.69
2019-01-31T13:55:42.312Z,2.65
2019-01-31T13:57:49.105Z,2.63
2019-01-31T13:59:55.494Z,2.62
2019-01-31T14:02:18.740Z,2.57
2019-01-31T14:04:25.143Z,2.58
2019-01-31T14:06:40.694Z,2.56
2019-01-31T14:08:56.262Z,2.55
2019-01-31T14:11:11.537Z,2.48
2019-01-31T14:13:17.740Z,2.47
2019-01-31T14:15:34.115Z,2.48
2019-01-31T14:17:44.030Z,2.48
2019-01-31T14:19:55.286Z,2.45
2019-01-31T14:23:02.713Z,2.40
2019-01-31T14:25:09.876Z,2.38
2019-01-31T14:27:34.792Z,2.36
2019-01-31T14:32:41.646Z,2.29
2019-01-31T14:34:49.111Z,2.26
2019-01-31T14:37:04.455Z,2.25
2019-01-31T14:39:11.328Z,2.21
2019-01-31T14:41:19.451Z,2.19
2019-01-31T14:43:42.146Z,2.15
2019-01-31T14:45:51.205Z,2.13
2019-01-31T14:48:06.672Z,2.13
2019-01-31T14:50:24.926Z,2.14
2019-01-31T14:52:58.928Z,2.14
2019-01-31T14:55:07.653Z,2.09
2019-01-31T14:57:14.426Z,2.06
2019-01-31T15:01:50.475Z,2.02
2019-01-31T15:06:40.658Z,1.99
2019-01-31T15:09:10.985Z,1.97
2019-01-31T15:11:17.766Z,1.96
2019-01-31T15:13:24.242Z,1.93
2019-01-31T15:16:09.774Z,1.93
2019-01-31T15:18:17.107Z,1.94
2019-01-31T15:20:34.830Z,1.88
2019-01-31T15:22:35.157Z,1.86
2019-01-31T15:25:06.127Z,1.83
2019-01-31T15:27:13.839Z,1.82
2019-01-31T15:29:20.508Z,1.80
2019-01-31T15:31:27.569Z,1.78
2019-01-31T15:33:34.158Z,1.76
2019-01-31T15:36:12.569Z,1.76
2019-01-31T15:38:22.312Z,1.73
2019-01-31T15:40:42.366Z,1.71
2019-01-31T15:42:49.245Z,1.68
2019-01-31T15:45:06.864Z,1.65
2019-01-31T15:47:16.784Z,1.63
2019-01-31T15:49:29.880Z,1.60
2019-01-31T15:54:11.155Z,1.60
2019-01-31T15:56:26.704Z,1.59
2019-01-31T15:58:33.634Z,1.62
2019-01-31T16:01:02.430Z,1.63
2019-01-31T16:03:18.765Z,1.65
2019-01-31T16:05:25.484Z,1.62
2019-01-31T16:07:50.313Z,1.65
2019-01-31T16:09:59.904Z,1.63
2019-01-31T16:12:07.440Z,1.63
2019-01-31T16:14:14.362Z,1.63
2019-01-31T16:16:27.211Z,1.61
2019-01-31T16:18:33.991Z,1.61
2019-01-31T16:20:43.225Z,1.62
2019-01-31T16:22:51.202Z,1.62
2019-01-31T16:25:25.658Z,1.62
2019-01-31T16:27:38.441Z,1.62
2019-01-31T16:29:45.391Z,1.60
2019-01-31T16:34:28.903Z,1.55
2019-01-31T16:36:39.533Z,1.54
2019-01-31T16:38:46.843Z,1.53
2019-01-31T16:41:02.420Z,1.52
2019-01-31T16:43:27.409Z,1.54
2019-01-31T16:45:34.423Z,1.51
2019-01-31T16:47:50.225Z,1.50
2019-01-31T16:49:57.454Z,1.50
2019-01-31T16:52:05.464Z,1.49
2019-01-31T16:54:13.536Z,1.49
2019-01-31T16:56:26.062Z,1.48
2019-01-31T16:58:33.144Z,1.49
2019-01-31T17:00:40.385Z,1.49
2019-01-31T17:05:32.328Z,1.50
2019-01-31T17:07:45.114Z,1.47
2019-01-31T17:09:52.045Z,1.46
2019-01-31T17:11:59.003Z,1.46
2019-01-31T17:14:30.123Z,1.46
2019-01-31T17:16:41.244Z,1.45
2019-01-31T17:19:13.330Z,1.41
2019-01-31T17:22:07.586Z,1.41
2019-01-31T17:23:34.011Z,1.39
2019-01-31T17:25:46.962Z,1.40
2019-01-31T17:27:53.484Z,1.40
2019-01-31T17:30:30.609Z,1.41
2019-01-31T17:32:37.835Z,1.41
2019-01-31T17:34:44.394Z,1.41
2019-01-31T17:37:27.015Z,1.42
2019-01-31T17:39:36.586Z,1.41
2019-01-31T17:41:43.254Z,1.40
2019-01-31T17:43:50.230Z,1.42
2019-01-31T17:45:57.101Z,1.41
2019-01-31T17:48:43.173Z,1.42
2019-01-31T17:50:50.044Z,1.44
2019-01-31T17:52:56.780Z,1.43
2019-01-31T17:55:19.013Z,1.44
2019-01-31T17:57:26.181Z,1.43
2019-01-31T17:59:33.021Z,1.42
2019-01-31T18:01:39.455Z,1.43
2019-01-31T18:03:49.486Z,1.43
2019-01-31T18:08:23.774Z,1.44
2019-01-31T18:10:31.005Z,1.44
2019-01-31T18:12:46.551Z,1.45
2019-01-31T18:14:53.302Z,1.45
2019-01-31T18:17:02.781Z,1.45
2019-01-31T18:19:09.631Z,1.46
2019-01-31T18:21:19.562Z,1.46
2019-01-31T18:23:26.345Z,1.45
2019-01-31T18:25:53.330Z,1.48
2019-01-31T18:28:40.486Z,1.48
2019-01-31T18:33:42.384Z,1.48
2019-01-31T18:37:03.503Z,1.47
2019-01-31T18:39:22.824Z,1.45
2019-01-31T18:44:29.471Z,1.43
2019-01-31T18:46:40.024Z,1.43
2019-01-31T18:48:46.834Z,1.45
2019-01-31T18:51:53.993Z,1.46
2019-01-31T18:54:00.804Z,1.47
2019-01-31T18:56:08.251Z,1.50
2019-01-31T18:58:23.653Z,1.49
2019-01-31T19:00:47.324Z,1.48
2019-01-31T19:02:59.693Z,1.49
2019-01-31T19:05:16.624Z,1.52
2019-01-31T19:07:24.886Z,1.52
2019-01-31T19:09:34.723Z,1.53
2019-01-31T19:11:41.714Z,1.54
2019-01-31T19:14:00.604Z,1.55
2019-01-31T19:16:09.295Z,1.53
2019-01-31T19:18:28.943Z,1.51
2019-01-31T19:20:45.278Z,1.47
2019-01-31T19:23:06.260Z,1.46
2019-01-31T19:25:32.487Z,1.42
2019-01-31T19:27:44.502Z,1.41
2019-01-31T19:30:06.880Z,1.38
2019-01-31T19:32:13.825Z,1.38
2019-01-31T19:34:20.812Z,1.36
2019-01-31T19:36:30.822Z,1.35
2019-01-31T19:38:45.569Z,1.37
2019-01-31T19:40:52.850Z,1.36
2019-01-31T19:43:05.761Z,1.34
2019-01-31T19:45:37.345Z,1.35
2019-01-31T19:48:31.528Z,1.33
2019-01-31T19:49:58.922Z,1.32
2019-01-31T19:52:05.544Z,1.29
2019-01-31T19:54:25.775Z,1.27
2019-01-31T19:56:35.591Z,1.22
2019-01-31T19:58:42.601Z,1.20
2019-01-31T20:00:52.412Z,1.15
2019-01-31T20:02:59.452Z,1.09
2019-01-31T20:05:06.922Z,1.02
2019-01-31T20:07:17.570Z,0.96
2019-01-31T20:10:18.738Z,0.92
2019-01-31T20:12:27.010Z,0.90
2019-01-31T20:14:34.379Z,0.93
2019-01-31T20:16:53.039Z,0.97
2019-01-31T20:19:09.434Z,1.02
2019-01-31T20:21:37.501Z,1.07
2019-01-31T20:23:44.821Z,1.11
2019-01-31T20:25:51.642Z,1.13
2019-01-31T20:27:58.390Z,1.16
2019-01-31T20:30:07.592Z,1.17
2019-01-31T20:32:14.788Z,1.19
2019-01-31T20:34:31.144Z,1.21
2019-01-31T20:36:38.772Z,1.22
2019-01-31T20:39:08.723Z,1.22
2019-01-31T20:41:15.809Z,1.24
2019-01-31T20:43:26.152Z,1.22
2019-01-31T20:45:59.650Z,1.23
2019-01-31T20:48:10.461Z,1.24
2019-01-31T20:50:34.576Z,1.25
2019-01-31T20:52:41.637Z,1.27
2019-01-31T20:54:57.192Z,1.26
2019-01-31T20:57:04.583Z,1.28
2019-01-31T20:59:18.242Z,1.26
2019-01-31T21:01:24.981Z,1.23
2019-01-31T21:03:31.922Z,1.21
2019-01-31T21:05:41.364Z,1.21
2019-01-31T21:07:57.489Z,1.20
2019-01-31T21:10:17.099Z,1.21
2019-01-31T21:12:23.773Z,1.20
2019-01-31T21:14:47.059Z,1.21
2019-01-31T21:16:53.512Z,1.19
2019-01-31T21:19:06.162Z,1.20
2019-01-31T21:21:22.070Z,1.18
2019-01-31T21:23:43.449Z,1.19
2019-01-31T21:25:50.153Z,1.17
2019-01-31T21:28:24.794Z,1.17
2019-01-31T21:31:05.274Z,1.15
2019-01-31T21:33:38.239Z,1.10
2019-01-31T21:35:45.126Z,1.07
2019-01-31T21:37:51.488Z,1.04
2019-01-31T21:39:58.331Z,1.04
2019-01-31T21:42:07.600Z,1.05
2019-01-31T21:46:43.718Z,1.04
2019-01-31T21:49:08.219Z,1.04
2019-01-31T21:51:14.508Z,1.03
2019-01-31T21:53:28.439Z,1.01
2019-01-31T21:55:51.726Z,1.01
2019-01-31T21:57:58.218Z,1.01
2019-01-31T22:00:06.098Z,0.99
2019-01-31T22:02:30.878Z,0.97
2019-01-31T22:04:40.074Z,0.96
2019-01-31T22:07:14.689Z,0.94
2019-01-31T22:09:22.179Z,0.91
2019-01-31T22:11:34.690Z,0.90
2019-01-31T22:13:46.680Z,0.88
2019-01-31T22:16:02.141Z,0.84
2019-01-31T22:18:09.685Z,0.84
2019-01-31T22:20:15.915Z,0.81
2019-01-31T22:22:29.023Z,0.77
2019-01-31T22:24:35.705Z,0.71
2019-01-31T22:26:45.487Z,0.65
2019-01-31T22:28:52.427Z,0.62
2019-01-31T22:33:37.721Z,0.53
2019-01-31T22:35:49.650Z,0.43
2019-01-31T22:38:23.001Z,0.37
2019-01-31T22:40:29.361Z,0.28
2019-01-31T22:42:37.351Z,0.21
2019-01-31T22:44:43.760Z,0.16
2019-01-31T22:46:50.601Z,0.12
2019-01-31T22:49:12.504Z,0.11
2019-01-31T22:51:20.932Z,0.14
2019-01-31T22:53:54.212Z,0.17
2019-01-31T22:56:07.866Z,0.22
2019-01-31T22:58:23.440Z,0.22
2019-01-31T23:01:00.921Z,0.22
2019-01-31T23:03:25.720Z,0.23
2019-01-31T23:05:32.301Z,0.22
2019-01-31T23:07:40.191Z,0.23
2019-01-31T23:09:46.860Z,0.21
2019-01-31T23:12:10.840Z,0.20
2019-01-31T23:14:17.102Z,0.22
2019-01-31T23:16:23.250Z,0.21
2019-01-31T23:18:32.390Z,0.21
2019-01-31T23:20:44.322Z,0.16
2019-01-31T23:22:49.720Z,0.19
2019-01-31T23:24:56.010Z,0.21
2019-01-31T23:27:02.214Z,0.20
2019-01-31T23:29:08.650Z,0.16
2019-01-31T23:31:16.214Z,0.16
2019-01-31T23:33:22.257Z,0.15
2019-01-31T23:35:46.437Z,0.15
2019-01-31T23:37:54.427Z,0.17
2019-01-31T23:40:06.929Z,0.16
2019-01-31T23:44:50.189Z,0.06
2019-01-31T23:46:59.208Z,0.02
2019-01-31T23:49:23.799Z,0.04
2019-01-31T23:51:38.957Z,0.04
2019-01-31T23:53:45.406Z,0.07
2019-01-31T23:56:00.679Z,0.05
2019-01-31T23:58:15.965Z,0.07
